Time;durP1;ratioP1;P1;durP2;ratioP2;P2;SDS_P1;SDS_P2;PMS_P1;PMS_P2;Temp;Humidity;BMP_temperature;BMP_pressure;BME280_temperature;BME280_humidity;BME280_pressure;Samples;Min_cycle;Max_cycle;Signal;HPM_P1;HPM_P2
2022/11/16 00:03:43;;;;;;;2.35;1.20;;;15.90;72.20;;;;;;10448595;28;20138;-56
2022/11/16 00:14:07;;;;;;;4.53;1.77;;;16.00;72.00;;;;;;10448966;28;20025;-56
2022/11/16 00:19:10;;;;;;;2.65;1.30;;;16.10;71.80;;;;;;10447616;28;20029;-56
2022/11/16 00:24:16;;;;;;;5.22;1.70;;;16.00;71.80;;;;;;10448265;28;20138;-56
2022/11/16 00:29:23;;;;;;;3.63;1.23;;;16.00;72.00;;;;;;10447512;28;20022;-56
2022/11/16 00:34:24;;;;;;;3.40;1.25;;;15.90;72.80;;;;;;10447482;28;20057;-56
2022/11/16 00:39:25;;;;;;;5.97;1.58;;;15.90;72.10;;;;;;10446844;28;20036;-56
2022/11/16 00:44:25;;;;;;;3.47;1.20;;;16.10;71.70;;;;;;10447283;28;20098;-56
2022/11/16 00:49:26;;;;;;;2.42;1.10;;;16.10;71.60;;;;;;10447254;28;20088;-56
2022/11/16 00:54:26;;;;;;;2.45;1.27;;;16.10;71.70;;;;;;10446448;28;20028;-56
2022/11/16 00:59:28;;;;;;;4.13;1.20;;;16.00;71.90;;;;;;10447828;28;20048;-56
2022/11/16 01:04:29;;;;;;;2.50;1.42;;;16.00;72.00;;;;;;10445968;28;20072;-56
2022/11/16 01:09:30;;;;;;;3.10;1.35;;;16.10;71.70;;;;;;10447293;28;20113;-56
2022/11/16 01:14:30;;;;;;;2.78;1.67;;;16.10;71.70;;;;;;10447616;28;20629;-56
2022/11/16 01:19:31;;;;;;;2.35;1.10;;;16.10;71.60;;;;;;10447105;28;20108;-55
2022/11/16 01:24:32;;;;;;;1.65;0.90;;;16.00;71.80;;;;;;10445705;28;20048;-56
2022/11/16 01:29:33;;;;;;;1.95;1.30;;;16.00;72.00;;;;;;10445154;28;20372;-56
2022/11/16 01:34:34;;;;;;;3.03;1.33;;;15.90;72.20;;;;;;10445364;28;20057;-56
2022/11/16 01:39:35;;;;;;;2.42;1.63;;;15.90;72.20;;;;;;10445257;28;20365;-56
2022/11/16 01:44:35;;;;;;;3.55;1.40;;;16.00;72.00;;;;;;10446774;28;20035;-54
2022/11/16 01:49:44;;;;;;;2.75;1.00;;;16.00;72.00;;;;;;10444573;28;20025;-56
2022/11/16 01:54:48;;;;;;;3.38;1.08;;;15.90;72.10;;;;;;10430730;28;20021;-55
2022/11/16 01:59:54;;;;;;;7.35;1.23;;;15.90;72.30;;;;;;10448108;28;20025;-56
2022/11/16 02:04:57;;;;;;;3.45;1.73;;;15.80;72.50;;;;;;10452949;28;20040;-55
2022/11/16 02:10:27;;;;;;;2.97;1.13;;;15.80;72.60;;;;;;10453666;28;20368;-56
2022/11/16 02:15:32;;;;;;;2.80;1.58;;;15.90;72.20;;;;;;10452664;28;20510;-56
2022/11/16 02:20:59;;;;;;;2.20;1.20;;;16.10;71.70;;;;;;10452059;28;20033;-56
2022/11/16 02:26:46;;;;;;;2.72;1.08;;;16.10;71.50;;;;;;10452236;28;20105;-57
2022/11/16 02:32:26;;;;;;;2.90;1.05;;;16.10;71.60;;;;;;10453209;28;20017;-56
2022/11/16 02:37:33;;;;;;;3.42;1.08;;;16.00;71.80;;;;;;10452407;28;20041;-56
2022/11/16 02:42:50;;;;;;;2.88;1.50;;;15.90;72.00;;;;;;10451603;28;20124;-56
2022/11/16 02:47:54;;;;;;;3.05;1.08;;;15.90;72.20;;;;;;10451451;28;20463;-55
2022/11/16 02:52:55;;;;;;;2.58;1.55;;;15.80;72.40;;;;;;10451148;28;20025;-56
2022/11/16 02:58:08;;;;;;;2.80;1.05;;;15.80;72.50;;;;;;10450859;28;20418;-56
2022/11/16 03:03:21;;;;;;;2.83;1.30;;;15.90;72.20;;;;;;10450771;28;20053;-56
2022/11/16 03:08:33;;;;;;;1.30;0.90;;;16.10;71.70;;;;;;10452072;28;20447;-55
2022/11/16 03:13:36;;;;;;;2.13;0.88;;;16.10;71.50;;;;;;10449272;28;20115;-57
2022/11/16 03:18:38;;;;;;;5.22;1.35;;;16.10;71.30;;;;;;10449975;28;20025;-56
2022/11/16 03:23:39;;;;;;;2.58;1.00;;;16.10;71.40;;;;;;10433391;28;20028;-56
2022/11/16 03:28:55;;;;;;;1.67;1.10;;;16.10;71.50;;;;;;10449746;28;20024;-56
2022/11/16 03:34:05;;;;;;;1.73;0.93;;;16.10;71.50;;;;;;10451460;28;20064;-56
2022/11/16 03:39:22;;;;;;;2.80;1.02;;;16.10;71.60;;;;;;10449278;28;20078;-56
2022/11/16 03:44:23;;;;;;;1.77;1.23;;;16.00;71.60;;;;;;10450359;28;20041;-56
2022/11/16 03:49:23;;;;;;;1.20;0.80;;;16.00;71.90;;;;;;10465102;28;20384;-56
2022/11/16 03:54:24;;;;;;;1.85;0.98;;;15.90;72.00;;;;;;10448749;28;20095;-56
2022/11/16 03:59:25;;;;;;;1.85;0.85;;;15.90;72.20;;;;;;10448406;28;20510;-56
2022/11/16 04:25:50;;;;;;;2.50;1.43;;;15.90;72.10;;;;;;10437858;28;20999;-56
2022/11/16 04:47:07;;;;;;;2.72;1.20;;;16.00;71.80;;;;;;10447794;28;20037;-56
2022/11/16 04:52:08;;;;;;;1.67;0.98;;;16.10;71.50;;;;;;10446262;28;20570;-55
2022/11/16 04:57:09;;;;;;;1.73;1.63;;;16.10;71.50;;;;;;10444595;28;20028;-57
2022/11/16 05:02:09;;;;;;;1.33;0.85;;;16.10;71.60;;;;;;10478709;28;20116;-57
2022/11/16 05:07:13;;;;;;;1.48;0.73;;;16.00;71.70;;;;;;10447100;28;20101;-57
2022/11/16 05:12:24;;;;;;;2.28;1.20;;;16.00;72.00;;;;;;10444740;28;20048;-57
2022/11/16 05:17:26;;;;;;;3.08;0.90;;;15.90;72.20;;;;;;10445005;28;20028;-57
2022/11/16 05:22:27;;;;;;;2.22;1.25;;;15.80;72.30;;;;;;10441217;28;20067;-57
2022/11/16 05:27:29;;;;;;;2.15;0.80;;;15.80;72.50;;;;;;10443956;28;20035;-55
2022/11/16 05:32:29;;;;;;;5.72;1.27;;;15.90;72.20;;;;;;10444564;28;20029;-58
2022/11/16 05:37:30;;;;;;;3.42;1.63;;;16.00;72.90;;;;;;10439154;28;20044;-58
2022/11/16 05:42:32;;;;;;;3.20;1.17;;;16.10;72.00;;;;;;10446842;28;20033;-58
2022/11/16 05:47:33;;;;;;;8.15;1.45;;;16.10;72.10;;;;;;10445351;28;20121;-58
2022/11/16 05:52:33;;;;;;;8.82;4.55;;;16.10;72.90;;;;;;10444520;28;20070;-58
2022/11/16 05:57:34;;;;;;;7.90;4.15;;;16.20;73.40;;;;;;10448059;28;20100;-57
2022/11/16 06:02:35;;;;;;;8.45;5.57;;;16.20;73.90;;;;;;10477497;28;20029;-58
2022/11/16 06:07:35;;;;;;;8.30;4.82;;;16.10;74.30;;;;;;10445309;28;20021;-57
2022/11/16 06:12:36;;;;;;;7.35;6.57;;;16.20;74.20;;;;;;10443971;28;20409;-58
2022/11/16 06:17:37;;;;;;;9.98;5.60;;;16.40;75.90;;;;;;10445739;28;20064;-57
2022/11/16 06:22:37;;;;;;;13.63;5.30;;;16.40;74.40;;;;;;10444520;28;20120;-57
2022/11/16 06:27:41;;;;;;;12.02;4.63;;;16.30;75.10;;;;;;10443837;28;20078;-56
2022/11/16 06:32:41;;;;;;;10.18;5.18;;;16.30;74.60;;;;;;10445178;28;20029;-58
2022/11/16 06:37:42;;;;;;;9.98;4.22;;;16.40;74.10;;;;;;10443423;28;20810;-57
2022/11/16 06:42:43;;;;;;;9.85;4.65;;;16.50;73.20;;;;;;10443058;28;20033;-58
2022/11/16 06:47:44;;;;;;;15.95;4.30;;;16.60;73.40;;;;;;10446494;28;20535;-59
2022/11/16 06:52:46;;;;;;;15.57;4.72;;;16.70;73.10;;;;;;10451103;28;20075;-58
2022/11/16 06:57:47;;;;;;;11.73;4.53;;;16.60;73.20;;;;;;10445522;28;20025;-58
2022/11/16 07:02:48;;;;;;;16.73;4.07;;;16.60;73.30;;;;;;10448392;28;20029;-59
2022/11/16 07:07:54;;;;;;;23.77;5.85;;;16.60;73.50;;;;;;10450326;28;20019;-58
2022/11/16 07:12:54;;;;;;;21.65;5.18;;;16.50;73.80;;;;;;10450631;28;20021;-60
2022/11/16 07:17:55;;;;;;;16.73;4.20;;;16.40;73.70;;;;;;10449931;28;20099;-60
2022/11/16 07:23:02;;;;;;;16.20;4.30;;;16.30;74.10;;;;;;10436297;28;20741;-59
2022/11/16 07:28:03;;;;;;;16.58;5.30;;;16.20;74.10;;;;;;10449631;28;20017;-60
2022/11/16 07:33:04;;;;;;;18.92;4.75;;;16.10;74.10;;;;;;10448393;28;20155;-60
2022/11/16 07:38:04;;;;;;;15.38;3.92;;;16.10;74.30;;;;;;10464843;28;20020;-65
2022/11/16 07:43:05;;;;;;;15.70;3.65;;;16.00;74.40;;;;;;10449627;28;20108;-60
2022/11/16 07:48:06;;;;;;;17.73;4.68;;;16.00;74.40;;;;;;10448741;28;20487;-61
2022/11/16 07:53:06;;;;;;;18.33;4.30;;;15.90;74.60;;;;;;10446375;28;20052;-60
2022/11/16 07:58:07;;;;;;;17.10;5.00;;;16.00;74.70;;;;;;10447027;28;20112;-59
2022/11/16 08:03:07;;;;;;;14.38;4.35;;;15.90;75.30;;;;;;10449398;28;20079;-59
2022/11/16 08:08:08;;;;;;;11.77;3.47;;;15.90;75.40;;;;;;10434485;28;20098;-56
2022/11/16 08:13:09;;;;;;;15.48;3.70;;;15.90;75.50;;;;;;10431371;28;20113;-58
2022/11/16 08:18:09;;;;;;;16.40;3.47;;;15.90;75.60;;;;;;10447767;28;20100;-59
2022/11/16 08:23:11;;;;;;;20.73;3.70;;;15.90;75.60;;;;;;10447273;28;20111;-59
2022/11/16 08:28:13;;;;;;;13.05;4.15;;;15.90;75.40;;;;;;10446970;28;20069;-59
2022/11/16 08:33:13;;;;;;;13.32;3.30;;;15.80;75.50;;;;;;10448306;28;20037;-57
2022/11/16 08:38:14;;;;;;;10.63;3.35;;;15.80;75.60;;;;;;10448989;28;20794;-58
2022/11/16 08:43:15;;;;;;;15.73;3.72;;;15.90;75.60;;;;;;10448630;28;20060;-58
2022/11/16 08:48:15;;;;;;;12.77;3.30;;;15.90;75.70;;;;;;10447915;28;20063;-58
2022/11/16 08:53:16;;;;;;;8.98;2.90;;;15.90;75.60;;;;;;10449011;28;20124;-57
2022/11/16 08:58:17;;;;;;;10.05;3.17;;;15.90;75.60;;;;;;10445468;28;20032;-58
2022/11/16 09:03:17;;;;;;;11.05;3.30;;;15.90;75.60;;;;;;10457230;28;20097;-59
2022/11/16 09:08:18;;;;;;;9.25;3.17;;;15.90;75.50;;;;;;10443934;28;20464;-58
2022/11/16 09:13:19;;;;;;;8.43;2.67;;;15.90;75.30;;;;;;10446676;28;20111;-57
2022/11/16 09:18:19;;;;;;;11.05;2.97;;;15.80;75.50;;;;;;10447325;28;20056;-58
2022/11/16 09:23:21;;;;;;;14.25;3.50;;;15.80;75.40;;;;;;10443996;28;20056;-58
2022/11/16 09:28:22;;;;;;;8.85;3.45;;;15.90;75.40;;;;;;10442971;28;20028;-58
2022/11/16 09:33:22;;;;;;;6.97;2.63;;;15.90;75.30;;;;;;10459596;28;20053;-59
2022/11/16 09:38:23;;;;;;;9.77;2.80;;;15.90;75.20;;;;;;10431205;28;20021;-58
2022/11/16 09:43:50;;;;;;;7.82;2.60;;;15.90;75.10;;;;;;10444099;28;20104;-58
2022/11/16 09:48:52;;;;;;;7.53;3.97;;;16.00;75.10;;;;;;10446582;28;20025;-58
2022/11/16 09:54:15;;;;;;;8.40;2.90;;;16.00;75.10;;;;;;10441443;28;20021;-59
2022/11/16 09:59:24;;;;;;;5.30;1.73;;;16.00;75.10;;;;;;10441262;28;20025;-59
2022/11/16 10:04:52;;;;;;;4.53;2.63;;;16.00;75.20;;;;;;10445986;28;20082;-58
2022/11/16 10:09:55;;;;;;;7.55;3.13;;;16.00;75.20;;;;;;10453787;28;20032;-58
2022/11/16 10:15:15;;;;;;;6.18;1.83;;;16.00;75.10;;;;;;10445031;28;20055;-58
2022/11/16 10:20:31;;;;;;;10.27;1.90;;;16.10;75.20;;;;;;10431723;28;20040;-59
2022/11/16 10:25:57;;;;;;;6.55;2.15;;;16.10;75.10;;;;;;10453909;28;20048;-58
2022/11/16 10:31:45;;;;;;;6.35;2.03;;;16.10;75.10;;;;;;10453066;28;20039;-59
2022/11/16 10:36:46;;;;;;;5.00;2.47;;;16.10;75.00;;;;;;10452901;28;20041;-58
2022/11/16 10:41:50;;;;;;;5.03;2.55;;;16.20;75.00;;;;;;10451453;28;20622;-58
2022/11/16 10:47:03;;;;;;;4.57;1.35;;;16.20;75.00;;;;;;10451825;28;20028;-59
2022/11/16 10:52:03;;;;;;;5.78;1.92;;;16.20;74.90;;;;;;10446483;28;20040;-57
2022/11/16 10:57:16;;;;;;;6.80;2.50;;;16.20;74.90;;;;;;10451715;28;20028;-58
2022/11/16 11:02:36;;;;;;;5.72;1.88;;;16.20;74.90;;;;;;10452017;28;20108;-58
2022/11/16 11:07:38;;;;;;;7.28;2.60;;;16.20;74.80;;;;;;10451101;28;20104;-58
2022/11/16 11:12:39;;;;;;;8.57;4.10;;;16.20;74.90;;;;;;10460244;28;20105;-58
2022/11/16 11:17:48;;;;;;;5.15;1.67;;;16.40;74.50;;;;;;10452128;28;20549;-57
2022/11/16 11:22:59;;;;;;;4.85;2.35;;;16.50;75.10;;;;;;10433872;28;20041;-58
2022/11/16 11:28:31;;;;;;;3.22;1.50;;;16.50;75.10;;;;;;10433599;28;20531;-58
2022/11/16 11:33:55;;;;;;;3.35;1.20;;;16.40;75.30;;;;;;10449066;28;20603;-59
2022/11/16 11:39:25;;;;;;;3.58;1.45;;;16.40;75.20;;;;;;10449262;28;20036;-60
2022/11/16 11:44:49;;;;;;;6.03;1.35;;;16.50;74.90;;;;;;10464012;28;20083;-58
2022/11/16 11:50:00;;;;;;;4.72;2.15;;;16.60;74.80;;;;;;10449795;28;20044;-62
2022/11/16 11:55:04;;;;;;;5.65;2.63;;;16.60;74.80;;;;;;10444855;28;20056;-60
2022/11/16 12:00:06;;;;;;;4.25;1.85;;;16.60;74.80;;;;;;10448588;28;20794;-60
2022/11/16 12:06:01;;;;;;;4.68;2.00;;;16.80;74.50;;;;;;10448679;28;20194;-63
2022/11/16 12:11:08;;;;;;;3.58;1.67;;;16.70;74.60;;;;;;10441040;28;20048;-61
2022/11/16 12:16:45;;;;;;;6.57;1.60;;;16.80;74.10;;;;;;10449421;28;20090;-62
2022/11/16 12:22:35;;;;;;;7.93;1.88;;;16.90;74.00;;;;;;10430359;28;20033;-64
2022/11/16 12:27:48;;;;;;;7.82;2.33;;;16.80;74.70;;;;;;10447750;28;20025;-63
2022/11/16 12:33:10;;;;;;;3.80;1.60;;;16.70;74.70;;;;;;10436038;28;20102;-59
2022/11/16 12:38:52;;;;;;;3.38;1.50;;;16.70;74.60;;;;;;10462710;28;20440;-59
2022/11/16 12:44:25;;;;;;;4.75;2.10;;;16.50;74.90;;;;;;10445876;28;20044;-59
2022/11/16 12:50:17;;;;;;;11.13;2.17;;;16.50;75.50;;;;;;10444695;28;20017;-57
2022/11/16 12:56:11;;;;;;;5.50;2.13;;;16.40;75.30;;;;;;10447629;28;20048;-58
2022/11/16 13:01:32;;;;;;;6.30;2.03;;;16.50;75.50;;;;;;10447526;28;20558;-57
2022/11/16 13:06:41;;;;;;;3.67;1.45;;;16.30;75.30;;;;;;10446802;28;20013;-57
2022/11/16 13:11:57;;;;;;;4.80;1.33;;;16.40;75.50;;;;;;10445785;28;20051;-58
2022/11/16 13:17:01;;;;;;;7.38;2.20;;;16.40;75.40;;;;;;10429413;28;20025;-58
2022/11/16 13:22:13;;;;;;;10.73;2.00;;;16.30;75.30;;;;;;10445148;28;20033;-60
2022/11/16 13:27:56;;;;;;;10.02;2.42;;;16.30;75.70;;;;;;10445316;28;20017;-61
2022/11/16 13:33:21;;;;;;;17.80;2.15;;;16.50;75.90;;;;;;10445914;28;20013;-62
2022/11/16 13:38:52;;;;;;;16.95;3.55;;;16.60;76.00;;;;;;10445655;28;20029;-61
2022/11/16 13:43:53;;;;;;;19.20;3.40;;;16.50;76.30;;;;;;10445269;28;20502;-57
2022/11/16 13:48:54;;;;;;;17.45;3.10;;;16.50;76.10;;;;;;10443834;28;20071;-59
2022/11/16 13:53:54;;;;;;;15.55;2.80;;;16.60;76.80;;;;;;10445496;28;20521;-59
2022/11/16 13:58:57;;;;;;;15.95;3.80;;;16.60;77.20;;;;;;10446459;28;20043;-58
2022/11/16 14:04:41;;;;;;;13.57;2.55;;;16.50;77.00;;;;;;10445087;28;20075;-58
2022/11/16 14:09:48;;;;;;;10.25;2.75;;;16.50;77.60;;;;;;10445262;28;20401;-61
2022/11/16 14:15:40;;;;;;;15.00;4.15;;;16.50;77.20;;;;;;10445543;28;20049;-60
2022/11/16 14:20:55;;;;;;;11.40;2.90;;;16.50;77.80;;;;;;10442600;28;20071;-59
2022/11/16 14:26:01;;;;;;;16.40;4.07;;;16.40;78.00;;;;;;10443728;28;20032;-58
2022/11/16 14:31:22;;;;;;;16.83;3.08;;;16.40;77.50;;;;;;10445396;28;20024;-58
2022/11/16 14:36:44;;;;;;;19.80;5.22;;;16.30;77.70;;;;;;10444262;28;20076;-59
2022/11/16 14:41:46;;;;;;;24.23;4.60;;;16.40;78.00;;;;;;10445153;28;20064;-60
2022/11/16 14:46:47;;;;;;;29.50;5.63;;;16.40;77.50;;;;;;10443045;28;20706;-62
2022/11/16 14:51:55;;;;;;;30.42;5.97;;;16.30;77.70;;;;;;10443764;28;20024;-61
2022/11/16 14:57:18;;;;;;;33.30;5.18;;;16.30;77.30;;;;;;10443714;28;20025;-61
2022/11/16 15:02:24;;;;;;;34.97;5.88;;;16.20;77.30;;;;;;10444315;28;20033;-60
2022/11/16 15:07:27;;;;;;;30.27;5.88;;;16.20;77.70;;;;;;10446325;28;20108;-61
2022/11/16 15:12:40;;;;;;;30.13;7.20;;;16.30;77.70;;;;;;10451016;28;20017;-60
2022/11/16 15:17:45;;;;;;;27.95;5.32;;;16.30;77.90;;;;;;10452248;28;20471;-59
2022/11/16 15:22:51;;;;;;;33.25;5.85;;;16.30;77.10;;;;;;10448949;28;20029;-60
2022/11/16 15:27:54;;;;;;;28.80;6.38;;;16.20;77.20;;;;;;10431151;28;20104;-60
2022/11/16 15:32:55;;;;;;;14.02;5.38;;;16.10;77.20;;;;;;10431526;28;20025;-60
2022/11/16 15:38:12;;;;;;;21.77;4.32;;;16.10;77.30;;;;;;10448481;28;20701;-60
2022/11/16 15:43:13;;;;;;;19.83;4.20;;;16.10;77.30;;;;;;10447523;28;20037;-60
2022/11/16 15:48:22;;;;;;;18.55;4.38;;;16.00;77.30;;;;;;10447424;28;20789;-60
2022/11/16 15:53:36;;;;;;;15.73;3.72;;;16.00;77.40;;;;;;10448492;28;20686;-60
2022/11/16 15:58:39;;;;;;;25.20;5.13;;;16.00;77.20;;;;;;10447642;28;20116;-60
2022/11/16 16:04:03;;;;;;;16.88;4.63;;;16.00;76.70;;;;;;10446587;28;20044;-60
2022/11/16 16:09:05;;;;;;;17.92;4.15;;;15.90;76.40;;;;;;10431102;28;20043;-58
2022/11/16 16:14:09;;;;;;;16.42;5.32;;;16.00;76.10;;;;;;10448805;28;20457;-61
2022/11/16 16:19:37;;;;;;;10.13;3.97;;;16.00;76.00;;;;;;10436721;28;20024;-59
2022/11/16 16:24:46;;;;;;;9.63;3.50;;;16.10;77.60;;;;;;10448055;28;20029;-59
2022/11/16 16:29:50;;;;;;;;;;;16.50;75.80;;;;;;10448184;28;20028;-59
2022/11/16 16:34:56;;;;;;;9.25;4.95;;;16.70;75.30;;;;;;10449457;28;20322;-58
2022/11/16 16:39:58;;;;;;;17.52;7.00;;;16.70;75.90;;;;;;10446810;28;20051;-59
2022/11/16 16:45:00;;;;;;;13.13;5.07;;;16.70;76.50;;;;;;10447907;28;20021;-60
2022/11/16 16:50:01;;;;;;;16.88;5.32;;;16.90;75.60;;;;;;10460745;28;20039;-58
2022/11/16 16:55:02;;;;;;;12.85;5.75;;;16.80;76.00;;;;;;10447929;28;20435;-61
2022/11/16 17:00:03;;;;;;;17.60;5.88;;;16.90;77.70;;;;;;10444176;28;20041;-61
2022/11/16 17:05:04;;;;;;;14.75;6.10;;;16.80;78.90;;;;;;10446093;28;20452;-60
2022/11/16 17:10:07;;;;;;;14.25;4.80;;;16.80;79.60;;;;;;10440623;28;20024;-60
2022/11/16 17:15:08;;;;;;;15.82;5.07;;;16.70;78.90;;;;;;10463215;28;20552;-62
2022/11/16 17:20:10;;;;;;;19.13;4.78;;;16.70;78.70;;;;;;10447678;28;20118;-62
2022/11/16 17:25:11;;;;;;;14.75;4.90;;;16.70;78.70;;;;;;10421275;28;20104;-66
2022/11/16 17:30:13;;;;;;;12.93;4.90;;;16.60;78.60;;;;;;10426276;28;20652;-63
2022/11/16 17:35:13;;;;;;;8.60;4.32;;;16.60;79.20;;;;;;10447437;28;20072;-60
2022/11/16 17:40:14;;;;;;;17.80;4.30;;;16.70;78.90;;;;;;10442729;28;20100;-60
2022/11/16 17:45:15;;;;;;;27.00;5.88;;;16.70;79.10;;;;;;10422886;28;20084;-62
2022/11/16 17:50:16;;;;;;;31.50;7.30;;;16.70;78.30;;;;;;10437426;28;20056;-61
2022/11/16 17:55:16;;;;;;;25.65;6.00;;;16.50;78.90;;;;;;10449323;28;20032;-62
2022/11/16 18:00:17;;;;;;;29.45;5.45;;;16.50;79.00;;;;;;10443670;28;20699;-64
2022/11/16 18:05:18;;;;;;;24.58;5.75;;;16.50;78.90;;;;;;10428395;28;20033;-64
2022/11/16 18:10:19;;;;;;;20.63;6.05;;;16.50;78.70;;;;;;10445113;28;20021;-63
2022/11/16 18:15:19;;;;;;;15.23;4.78;;;16.50;78.50;;;;;;10445673;28;20064;-64
2022/11/16 18:20:21;;;;;;;28.38;7.93;;;16.50;78.70;;;;;;10446421;28;20056;-60
2022/11/16 18:25:23;;;;;;;35.15;6.13;;;16.50;78.80;;;;;;10464859;28;20389;-62
2022/11/16 18:30:24;;;;;;;20.52;5.05;;;16.40;78.30;;;;;;10444684;28;20028;-62
2022/11/16 18:35:25;;;;;;;13.85;4.47;;;16.40;78.80;;;;;;10444733;28;20428;-62
2022/11/16 18:40:25;;;;;;;18.50;5.88;;;16.30;78.80;;;;;;10445729;28;20647;-62
2022/11/16 18:45:26;;;;;;;16.38;4.25;;;16.20;78.90;;;;;;10443158;28;20127;-61
2022/11/16 18:50:27;;;;;;;15.57;5.95;;;16.20;78.60;;;;;;10435800;28;20456;-63
2022/11/16 18:55:27;;;;;;;9.98;4.10;;;16.30;79.30;;;;;;10450859;28;20436;-62
2022/11/16 19:00:28;;;;;;;18.05;5.55;;;16.30;78.90;;;;;;10434154;28;20451;-63
2022/11/16 19:05:28;;;;;;;11.82;3.65;;;16.30;78.80;;;;;;10451297;28;20741;-63
2022/11/16 19:10:29;;;;;;;10.10;3.90;;;16.20;78.80;;;;;;10447850;28;20503;-63
2022/11/16 19:15:32;;;;;;;12.98;4.60;;;16.20;78.90;;;;;;10430151;28;20107;-63
2022/11/16 19:20:33;;;;;;;17.00;4.85;;;16.10;78.80;;;;;;10446516;28;20013;-63
2022/11/16 19:25:33;;;;;;;11.05;4.35;;;16.10;78.80;;;;;;10452426;28;20033;-63
2022/11/16 19:30:34;;;;;;;11.18;4.00;;;16.10;78.70;;;;;;10445215;28;20100;-61
2022/11/16 19:35:36;;;;;;;12.38;4.25;;;16.10;78.40;;;;;;10445337;28;20069;-62
2022/11/16 19:40:38;;;;;;;9.70;4.28;;;16.10;78.30;;;;;;10448099;28;20035;-61
2022/11/16 19:45:39;;;;;;;8.20;4.32;;;16.20;78.50;;;;;;10427609;28;20040;-61
2022/11/16 19:50:39;;;;;;;11.00;4.47;;;16.20;78.50;;;;;;10445634;28;20116;-60
2022/11/16 19:55:40;;;;;;;7.43;4.03;;;16.10;78.40;;;;;;10429065;28;20114;-63
2022/11/16 20:00:41;;;;;;;9.07;3.83;;;16.10;78.50;;;;;;10449655;28;20028;-64
2022/11/16 20:05:41;;;;;;;9.55;4.22;;;16.10;78.40;;;;;;10449410;28;20061;-63
2022/11/16 20:10:42;;;;;;;6.50;3.40;;;16.10;78.50;;;;;;10445742;28;20182;-62
2022/11/16 20:15:43;;;;;;;12.55;4.45;;;16.20;78.50;;;;;;10447691;28;20506;-62
2022/11/16 20:20:43;;;;;;;10.00;3.70;;;16.20;78.40;;;;;;10446871;28;20060;-62
2022/11/16 20:25:44;;;;;;;10.88;4.65;;;16.20;78.30;;;;;;10449422;28;20106;-62
2022/11/16 20:30:48;;;;;;;5.25;3.10;;;16.20;78.30;;;;;;10446949;28;20746;-61
2022/11/16 20:35:49;;;;;;;9.68;3.80;;;16.20;78.20;;;;;;10445547;28;20108;-63
2022/11/16 20:40:49;;;;;;;5.50;3.38;;;16.20;78.10;;;;;;10446789;28;20037;-65
2022/11/16 20:45:53;;;;;;;6.20;3.85;;;16.20;77.90;;;;;;10447494;28;20048;-61
2022/11/16 20:50:54;;;;;;;6.63;3.40;;;16.20;78.10;;;;;;10446522;28;20432;-64
2022/11/16 20:55:56;;;;;;;6.80;3.70;;;16.10;77.70;;;;;;10445465;28;20017;-63
2022/11/16 21:01:11;;;;;;;10.20;3.65;;;16.10;78.00;;;;;;10430161;28;20442;-60
2022/11/16 21:06:13;;;;;;;8.88;3.58;;;16.10;78.10;;;;;;10443668;28;20078;-61
2022/11/16 21:11:17;;;;;;;8.98;3.28;;;16.10;78.60;;;;;;10442975;28;20017;-63
2022/11/16 21:16:17;;;;;;;8.77;3.72;;;16.10;77.80;;;;;;10445715;28;20022;-63
2022/11/16 21:21:18;;;;;;;5.13;2.53;;;16.10;77.70;;;;;;10445487;28;20112;-64
2022/11/16 21:26:22;;;;;;;8.60;2.78;;;16.10;77.70;;;;;;10478534;28;20594;-62
2022/11/16 21:31:29;;;;;;;8.52;3.15;;;16.00;77.80;;;;;;10443860;28;20033;-62
2022/11/16 21:36:31;;;;;;;7.00;2.85;;;16.00;77.90;;;;;;10443717;28;20069;-61
2022/11/16 21:41:31;;;;;;;5.22;2.85;;;15.90;77.90;;;;;;10443768;28;20064;-62
2022/11/16 21:46:32;;;;;;;6.65;3.10;;;15.90;77.90;;;;;;10426521;28;20116;-62
2022/11/16 21:51:32;;;;;;;5.50;2.75;;;15.90;77.90;;;;;;10446303;28;20517;-62
2022/11/16 21:56:33;;;;;;;4.43;2.22;;;15.80;77.80;;;;;;10445740;28;20067;-62
2022/11/16 22:01:58;;;;;;;4.30;2.50;;;15.80;77.80;;;;;;10446508;28;20068;-62
2022/11/16 22:12:13;;;;;;;6.13;2.63;;;15.80;77.80;;;;;;10445097;28;20543;-62
2022/11/16 22:17:14;;;;;;;5.68;2.67;;;15.80;77.80;;;;;;10483710;28;20024;-62
2022/11/16 22:22:15;;;;;;;4.05;2.05;;;15.80;77.80;;;;;;10453971;28;20064;-62
2022/11/16 22:27:17;;;;;;;3.78;2.50;;;15.80;77.70;;;;;;10453118;28;20096;-62
2022/11/16 22:32:18;;;;;;;5.63;3.20;;;15.80;77.70;;;;;;10453335;28;20099;-63
2022/11/16 22:37:18;;;;;;;4.90;2.38;;;15.80;77.70;;;;;;10452694;28;20155;-63
2022/11/16 22:42:19;;;;;;;5.43;2.80;;;15.70;77.60;;;;;;10486083;28;20123;-62
2022/11/16 22:47:19;;;;;;;5.15;2.58;;;15.70;77.60;;;;;;10452486;28;20021;-63
2022/11/16 22:52:20;;;;;;;5.25;2.80;;;15.70;77.50;;;;;;10451952;28;20409;-62
2022/11/16 22:57:21;;;;;;;4.80;2.25;;;15.70;77.50;;;;;;10452216;28;20019;-62
2022/11/16 23:02:21;;;;;;;4.65;2.28;;;15.70;77.50;;;;;;10452054;28;20084;-62
2022/11/16 23:07:22;;;;;;;4.70;2.45;;;15.70;77.40;;;;;;10451790;28;20024;-63
2022/11/16 23:17:44;;;;;;;4.13;1.77;;;15.80;77.00;;;;;;10452351;28;20037;-63
2022/11/16 23:28:14;;;;;;;3.38;2.05;;;15.80;76.90;;;;;;10439198;28;20108;-62
2022/11/16 23:33:15;;;;;;;3.13;2.00;;;15.80;77.00;;;;;;10434305;28;20071;-62
2022/11/16 23:38:16;;;;;;;3.80;1.98;;;15.70;77.00;;;;;;10450818;28;20024;-61
2022/11/16 23:48:35;;;;;;;2.67;1.77;;;15.70;77.00;;;;;;10451961;28;20017;-62
2022/11/16 23:53:36;;;;;;;3.50;1.70;;;15.70;77.00;;;;;;10450418;28;20523;-61
2022/11/16 23:58:37;;;;;;;3.33;2.05;;;15.70;76.90;;;;;;10427733;28;20086;-62
